VYYY/RGN METAR and TAF weather

Enter ICAO airport designator
Station Type Date Time Source
VYYY METAR 2021/04/17 02:00 UTC NOAA

VYYY 170200Z 07006KT 7000 SCT020 FEW025CB SCT100 27/26 Q1011


Station Type Date Time Source
VYYY Decoded METAR 2021/04/17 02:00 UTC NOAA

Yangon, Myanmar (VYYY) 16-46N 096-10E 15M
Apr 16, 2021 - 10:00 PM EDT / 2021.04.17 0200 UTC
Wind: from the ENE (070 degrees) at 7 MPH (6 KT):0
Visibility: 4 mile(s):0
Sky conditions: partly cloudy
Weather: Cumulonimbus clouds observed
Temperature: 80 F (27 C)
Dew Point: 78 F (26 C)
Relative Humidity: 94%
Pressure (altimeter): 29.85 in. Hg (1011 hPa)
ob: VYYY 170200Z 07006KT 7000 SCT020 FEW025CB SCT100 27/26 Q1011
cycle: 2

Station Type Date Time Source
VYYY TAF 2021/04/16 18:39 UTC NOAA

TAF TAF VYYY 161700Z 1618/1718 26006KT 7000 BKN016 FEW020CB BKN100
BECMG 1702/1705 16006KT 6000 BKN016 FEW020CB

Example: see airport list